Time;durP1;ratioP1;P1;durP2;ratioP2;P2;SDS_P1;SDS_P2;PMS_P1;PMS_P2;Temp;Humidity;BMP_temperature;BMP_pressure;BME280_temperature;BME280_humidity;BME280_pressure;Samples;Min_cycle;Max_cycle;Signal;HPM_P1;HPM_P2
2023/07/06 00:00:34;;;;;;;14.88;10.20;;;;;;;;;;4965718;28;20300;-62
2023/07/06 00:03:00;;;;;;;12.45;10.10;;;;;;;;;;4964791;28;20261;-62
2023/07/06 00:05:25;;;;;;;12.60;10.27;;;;;;;;;;4959881;28;20240;-62
2023/07/06 00:07:52;;;;;;;13.45;10.65;;;;;;;;;;4957460;28;20412;-62
2023/07/06 00:10:18;;;;;;;12.85;10.55;;;;;;;;;;4941004;28;20293;-61
2023/07/06 00:12:43;;;;;;;13.23;10.88;;;;;;;;;;4962939;28;20601;-62
2023/07/06 00:15:09;;;;;;;14.77;11.43;;;;;;;;;;4959707;28;20700;-62
2023/07/06 00:17:34;;;;;;;14.20;10.60;;;;;;;;;;4945674;28;20609;-62
2023/07/06 00:19:59;;;;;;;17.40;11.60;;;;;;;;;;4946036;28;20215;-61
2023/07/06 00:22:25;;;;;;;15.75;11.30;;;;;;;;;;4945606;28;20218;-62
2023/07/06 00:24:50;;;;;;;16.33;11.05;;;;;;;;;;4945486;28;20319;-62
2023/07/06 00:27:16;;;;;;;12.82;10.95;;;;;;;;;;4942810;28;20634;-62
2023/07/06 00:29:56;;;;;;;12.90;10.35;;;;;;;;;;4938251;28;20289;-62
2023/07/06 00:32:28;;;;;;;15.15;11.15;;;;;;;;;;4969955;28;20665;-61
2023/07/06 00:34:55;;;;;;;13.45;10.73;;;;;;;;;;4972794;28;20582;-61
2023/07/06 00:37:21;;;;;;;13.18;10.85;;;;;;;;;;4972476;28;20226;-61
2023/07/06 00:39:47;;;;;;;13.18;10.18;;;;;;;;;;4972037;28;20225;-61
2023/07/06 00:42:14;;;;;;;14.75;10.75;;;;;;;;;;4972089;28;20225;-61
2023/07/06 00:44:47;;;;;;;13.43;10.15;;;;;;;;;;4972581;28;20198;-62
2023/07/06 00:47:13;;;;;;;12.85;10.82;;;;;;;;;;4971512;28;20381;-62
2023/07/06 00:49:39;;;;;;;11.95;9.80;;;;;;;;;;4949182;28;20305;-61
2023/07/06 00:52:04;;;;;;;12.52;10.38;;;;;;;;;;4938487;28;20276;-62
2023/07/06 00:54:30;;;;;;;15.07;9.73;;;;;;;;;;4945468;28;20690;-61
2023/07/06 00:56:57;;;;;;;12.63;10.38;;;;;;;;;;4964528;28;20241;-61
2023/07/06 00:59:26;;;;;;;13.23;10.00;;;;;;;;;;4945822;28;20226;-61
2023/07/06 01:01:51;;;;;;;12.32;9.80;;;;;;;;;;4964489;28;20228;-62
2023/07/06 01:04:17;;;;;;;14.15;10.13;;;;;;;;;;4963971;28;20218;-61
2023/07/06 01:06:47;;;;;;;15.82;10.40;;;;;;;;;;4946645;28;20221;-62
2023/07/06 01:09:12;;;;;;;12.38;10.23;;;;;;;;;;4949489;28;20211;-61
2023/07/06 01:11:38;;;;;;;11.57;10.07;;;;;;;;;;4926803;28;20297;-62
2023/07/06 01:14:03;;;;;;;13.40;10.95;;;;;;;;;;4936042;28;20218;-61
2023/07/06 01:16:37;;;;;;;14.07;10.75;;;;;;;;;;4944153;28;20277;-61
2023/07/06 01:19:17;;;;;;;12.60;10.35;;;;;;;;;;4963547;28;20700;-62
2023/07/06 01:21:44;;;;;;;14.07;10.68;;;;;;;;;;4946325;28;20221;-61
2023/07/06 01:24:14;;;;;;;13.07;10.18;;;;;;;;;;4943057;28;20685;-61
2023/07/06 01:26:50;;;;;;;12.30;10.60;;;;;;;;;;4946411;28;20213;-62
2023/07/06 01:29:16;;;;;;;14.50;10.48;;;;;;;;;;4945533;28;20285;-62
2023/07/06 01:31:47;;;;;;;17.40;10.43;;;;;;;;;;4958233;28;20886;-62
2023/07/06 01:34:21;;;;;;;15.35;11.23;;;;;;;;;;4934123;28;20274;-61
2023/07/06 01:36:47;;;;;;;15.18;10.98;;;;;;;;;;4955572;28;20237;-62
2023/07/06 01:39:20;;;;;;;15.60;11.30;;;;;;;;;;4944709;28;20221;-61
2023/07/06 01:41:46;;;;;;;15.30;11.00;;;;;;;;;;4962725;28;20275;-62
2023/07/06 01:44:12;;;;;;;16.08;11.40;;;;;;;;;;4963201;28;20305;-62
2023/07/06 01:46:38;;;;;;;12.45;9.98;;;;;;;;;;4945388;28;20218;-61
2023/07/06 01:49:05;;;;;;;14.20;10.50;;;;;;;;;;4944782;28;20229;-61
2023/07/06 01:51:32;;;;;;;13.38;10.00;;;;;;;;;;4963664;28;20228;-62
2023/07/06 01:53:59;;;;;;;15.18;10.45;;;;;;;;;;4941425;28;20572;-61
2023/07/06 01:56:28;;;;;;;15.38;11.63;;;;;;;;;;4937092;28;20225;-62
2023/07/06 01:58:57;;;;;;;15.25;10.50;;;;;;;;;;4938470;28;20705;-62
2023/07/06 02:01:23;;;;;;;14.80;10.60;;;;;;;;;;4959845;28;20220;-61
2023/07/06 02:03:50;;;;;;;13.98;10.27;;;;;;;;;;4945774;28;20225;-62
2023/07/06 02:06:17;;;;;;;11.90;9.35;;;;;;;;;;4946184;28;20309;-61
2023/07/06 02:08:42;;;;;;;12.43;10.43;;;;;;;;;;4943340;28;20313;-62
2023/07/06 02:11:14;;;;;;;13.27;10.07;;;;;;;;;;4943257;28;20313;-62
2023/07/06 02:13:39;;;;;;;15.35;10.57;;;;;;;;;;4963411;28;20259;-61
2023/07/06 02:16:05;;;;;;;15.13;10.80;;;;;;;;;;4947078;28;20644;-61
2023/07/06 02:18:31;;;;;;;13.30;10.60;;;;;;;;;;4935888;28;20685;-61
2023/07/06 02:20:57;;;;;;;16.10;10.88;;;;;;;;;;4936608;28;20219;-62
2023/07/06 02:23:23;;;;;;;13.93;10.75;;;;;;;;;;4938426;28;20277;-62
2023/07/06 02:25:48;;;;;;;14.63;10.82;;;;;;;;;;4944655;28;20559;-62
2023/07/06 02:28:13;;;;;;;14.43;10.13;;;;;;;;;;4943585;28;20221;-62
2023/07/06 02:30:39;;;;;;;14.63;10.35;;;;;;;;;;4962231;28;20691;-62
2023/07/06 02:33:04;;;;;;;17.67;10.05;;;;;;;;;;4953923;28;20305;-61
2023/07/06 02:35:32;;;;;;;13.95;10.80;;;;;;;;;;4944016;28;20694;-62
2023/07/06 02:37:58;;;;;;;14.25;10.52;;;;;;;;;;4942981;28;20223;-62
2023/07/06 02:40:23;;;;;;;15.30;10.85;;;;;;;;;;4948696;28;20210;-61
2023/07/06 02:42:48;;;;;;;13.52;10.52;;;;;;;;;;4947459;28;20237;-61
2023/07/06 02:45:14;;;;;;;14.65;11.07;;;;;;;;;;4934842;28;20202;-62
2023/07/06 02:47:41;;;;;;;12.45;10.27;;;;;;;;;;4937550;28;20218;-61
2023/07/06 02:50:11;;;;;;;15.52;10.13;;;;;;;;;;4943065;28;20359;-61
2023/07/06 02:52:36;;;;;;;16.33;11.13;;;;;;;;;;4961630;28;20210;-61
2023/07/06 02:55:02;;;;;;;15.27;10.93;;;;;;;;;;4962390;28;20671;-61
2023/07/06 02:57:27;;;;;;;13.95;11.00;;;;;;;;;;4963288;28;20217;-61
2023/07/06 02:59:56;;;;;;;14.05;10.45;;;;;;;;;;4945106;28;20233;-61
2023/07/06 03:02:21;;;;;;;16.98;11.00;;;;;;;;;;4962701;28;20656;-61
2023/07/06 03:04:46;;;;;;;16.35;11.55;;;;;;;;;;4939889;28;20300;-61
2023/07/06 03:07:12;;;;;;;15.70;11.95;;;;;;;;;;4956527;28;20222;-61
2023/07/06 03:09:37;;;;;;;16.45;11.10;;;;;;;;;;4947340;28;20776;-61
2023/07/06 03:12:05;;;;;;;16.52;11.32;;;;;;;;;;4945150;28;20339;-61
2023/07/06 03:14:31;;;;;;;13.73;10.80;;;;;;;;;;4947264;28;20285;-61
2023/07/06 03:16:56;;;;;;;18.83;12.07;;;;;;;;;;4947252;28;20729;-61
2023/07/06 03:19:21;;;;;;;17.73;11.45;;;;;;;;;;4947008;28;20779;-61
2023/07/06 03:21:47;;;;;;;18.13;12.75;;;;;;;;;;4946932;28;20324;-61
2023/07/06 03:24:13;;;;;;;22.23;12.55;;;;;;;;;;4947059;28;20214;-61
2023/07/06 03:26:39;;;;;;;19.33;12.75;;;;;;;;;;4943068;28;20273;-61
2023/07/06 03:29:05;;;;;;;16.38;12.23;;;;;;;;;;4940148;28;20241;-61
2023/07/06 03:31:32;;;;;;;17.55;11.68;;;;;;;;;;4958009;28;20329;-61
2023/07/06 03:33:57;;;;;;;15.20;11.55;;;;;;;;;;4961353;28;20649;-61
2023/07/06 03:36:23;;;;;;;16.65;11.25;;;;;;;;;;4965104;28;20312;-61
2023/07/06 03:38:49;;;;;;;16.27;10.95;;;;;;;;;;4966167;28;20214;-61
2023/07/06 03:41:16;;;;;;;15.48;11.18;;;;;;;;;;4958673;28;20230;-61
2023/07/06 03:43:42;;;;;;;15.93;11.98;;;;;;;;;;4965912;28;20688;-61
2023/07/06 03:46:07;;;;;;;13.93;10.65;;;;;;;;;;4950771;28;20294;-61
2023/07/06 03:48:32;;;;;;;19.05;11.32;;;;;;;;;;4944844;28;20214;-61
2023/07/06 03:51:02;;;;;;;16.48;11.65;;;;;;;;;;4939167;28;20222;-61
2023/07/06 03:53:28;;;;;;;12.73;10.18;;;;;;;;;;4957627;28;20272;-61
2023/07/06 03:55:53;;;;;;;18.90;10.85;;;;;;;;;;4958570;28;20230;-61
2023/07/06 03:58:21;;;;;;;18.17;10.13;;;;;;;;;;4931420;28;20222;-61
2023/07/06 04:00:47;;;;;;;16.23;11.25;;;;;;;;;;4965483;28;20311;-61
2023/07/06 04:03:12;;;;;;;16.80;11.27;;;;;;;;;;4964663;28;20218;-61
2023/07/06 04:05:38;;;;;;;15.88;10.48;;;;;;;;;;4965574;28;20252;-61
2023/07/06 04:08:07;;;;;;;14.93;9.80;;;;;;;;;;4965023;28;20220;-61
2023/07/06 04:10:32;;;;;;;17.63;9.50;;;;;;;;;;4946332;28;20241;-61
2023/07/06 04:12:58;;;;;;;13.98;9.05;;;;;;;;;;4939298;28;20211;-62
2023/07/06 04:15:23;;;;;;;15.18;10.10;;;;;;;;;;4937613;28;20226;-62
2023/07/06 04:17:48;;;;;;;17.38;8.95;;;;;;;;;;4937745;28;20279;-62
2023/07/06 04:20:18;;;;;;;14.75;8.60;;;;;;;;;;4944869;28;20214;-61
2023/07/06 04:22:44;;;;;;;18.73;9.32;;;;;;;;;;4964926;28;20638;-62
2023/07/06 04:25:10;;;;;;;14.98;9.45;;;;;;;;;;4950973;28;20249;-62
2023/07/06 04:27:35;;;;;;;15.32;8.43;;;;;;;;;;4945878;28;20265;-62
2023/07/06 04:30:00;;;;;;;13.75;8.40;;;;;;;;;;4944812;28;20728;-62
2023/07/06 04:32:31;;;;;;;16.83;8.43;;;;;;;;;;4946091;28;20211;-61
2023/07/06 04:34:57;;;;;;;16.05;8.75;;;;;;;;;;4959683;28;20228;-62
2023/07/06 04:37:22;;;;;;;17.38;8.52;;;;;;;;;;4955561;28;20245;-61
2023/07/06 04:39:48;;;;;;;14.30;8.13;;;;;;;;;;4955856;28;20283;-62
2023/07/06 04:42:13;;;;;;;13.40;7.38;;;;;;;;;;4942946;28;20276;-62
2023/07/06 04:44:38;;;;;;;13.35;7.47;;;;;;;;;;4945549;28;20210;-62
2023/07/06 04:47:04;;;;;;;14.57;7.13;;;;;;;;;;4945299;28;20223;-62
2023/07/06 04:49:30;;;;;;;14.80;7.05;;;;;;;;;;4946105;28;20212;-62
2023/07/06 04:51:55;;;;;;;16.25;7.47;;;;;;;;;;4963791;28;20218;-62
2023/07/06 04:54:20;;;;;;;13.13;7.03;;;;;;;;;;4964590;28;20225;-62
2023/07/06 04:56:46;;;;;;;14.10;6.82;;;;;;;;;;4961771;28;20237;-61
2023/07/06 04:59:11;;;;;;;13.45;7.65;;;;;;;;;;4955875;28;20694;-62
2023/07/06 05:01:36;;;;;;;16.70;6.93;;;;;;;;;;4943886;28;20686;-62
2023/07/06 05:04:02;;;;;;;15.95;6.53;;;;;;;;;;4939775;28;20297;-61
2023/07/06 05:06:27;;;;;;;11.80;6.50;;;;;;;;;;4944616;28;20361;-62
2023/07/06 05:08:53;;;;;;;13.90;6.88;;;;;;;;;;4941610;28;20748;-62
2023/07/06 05:11:18;;;;;;;13.77;6.45;;;;;;;;;;4944764;28;20692;-61
2023/07/06 05:13:45;;;;;;;14.43;6.30;;;;;;;;;;4965219;28;20586;-62
2023/07/06 05:16:10;;;;;;;16.88;6.45;;;;;;;;;;4971387;28;20675;-62
2023/07/06 05:18:35;;;;;;;16.50;6.28;;;;;;;;;;4972180;28;20337;-62
2023/07/06 05:21:01;;;;;;;16.70;6.87;;;;;;;;;;4970651;28;20482;-61
2023/07/06 05:23:28;;;;;;;17.50;6.60;;;;;;;;;;4971233;28;20526;-61
2023/07/06 05:25:54;;;;;;;16.23;6.53;;;;;;;;;;4971210;28;20222;-61
2023/07/06 05:28:20;;;;;;;14.65;6.35;;;;;;;;;;4969402;28;20210;-63
2023/07/06 05:30:46;;;;;;;17.15;7.10;;;;;;;;;;4971290;28;20249;-62
2023/07/06 05:33:12;;;;;;;14.15;6.10;;;;;;;;;;4970473;28;20205;-63
2023/07/06 05:35:38;;;;;;;19.75;6.60;;;;;;;;;;4971227;28;20233;-62
2023/07/06 05:38:03;;;;;;;14.45;6.22;;;;;;;;;;4970764;28;20209;-62
2023/07/06 05:40:28;;;;;;;14.93;6.28;;;;;;;;;;4970688;28;20674;-63
2023/07/06 05:42:54;;;;;;;15.70;6.40;;;;;;;;;;4971239;28;20225;-63
2023/07/06 05:45:20;;;;;;;16.42;7.25;;;;;;;;;;4952966;28;20216;-62
2023/07/06 05:47:45;;;;;;;20.52;6.93;;;;;;;;;;4970560;28;20276;-62
2023/07/06 05:50:11;;;;;;;15.20;6.53;;;;;;;;;;4970696;28;20713;-61
2023/07/06 05:52:36;;;;;;;14.60;7.20;;;;;;;;;;4971071;28;20210;-63
2023/07/06 05:55:02;;;;;;;17.17;6.45;;;;;;;;;;4969925;28;20292;-62
2023/07/06 05:57:28;;;;;;;20.75;7.25;;;;;;;;;;4971056;28;20743;-64
2023/07/06 05:59:53;;;;;;;15.35;7.38;;;;;;;;;;4971219;28;20272;-62
2023/07/06 06:02:20;;;;;;;18.25;7.50;;;;;;;;;;4969860;28;20210;-61
2023/07/06 06:04:47;;;;;;;18.88;7.53;;;;;;;;;;4970990;28;20210;-63
2023/07/06 06:07:12;;;;;;;18.95;7.85;;;;;;;;;;4970417;28;20205;-62
2023/07/06 06:09:38;;;;;;;16.40;7.30;;;;;;;;;;4970003;28;20679;-62
2023/07/06 06:12:04;;;;;;;19.60;8.70;;;;;;;;;;4970363;28;20206;-62
2023/07/06 06:14:30;;;;;;;22.00;8.50;;;;;;;;;;4970701;28;20214;-63
2023/07/06 06:16:56;;;;;;;20.35;8.48;;;;;;;;;;4962150;28;20284;-63
2023/07/06 06:19:21;;;;;;;20.27;8.75;;;;;;;;;;4968397;28;20217;-63
2023/07/06 06:21:49;;;;;;;20.42;9.40;;;;;;;;;;4953666;28;20217;-62
2023/07/06 06:24:14;;;;;;;26.42;10.70;;;;;;;;;;4969638;28;20655;-62
2023/07/06 06:26:42;;;;;;;25.17;11.10;;;;;;;;;;4970990;28;20248;-63
2023/07/06 06:29:09;;;;;;;25.25;12.20;;;;;;;;;;4970817;28;20229;-62
2023/07/06 06:31:35;;;;;;;26.88;12.85;;;;;;;;;;4970167;28;20760;-62
2023/07/06 06:34:00;;;;;;;26.83;13.25;;;;;;;;;;4970313;28;20221;-61
2023/07/06 06:36:26;;;;;;;30.92;13.60;;;;;;;;;;4971325;28;20333;-61
2023/07/06 06:38:51;;;;;;;31.42;14.25;;;;;;;;;;4970194;28;20221;-62
2023/07/06 06:41:16;;;;;;;30.08;14.55;;;;;;;;;;4973701;28;20604;-62
2023/07/06 06:43:44;;;;;;;29.25;15.35;;;;;;;;;;4974417;28;20692;-62
2023/07/06 06:46:09;;;;;;;25.10;13.77;;;;;;;;;;4974245;28;20224;-61
2023/07/06 06:48:35;;;;;;;28.48;15.20;;;;;;;;;;4974712;28;20849;-62
2023/07/06 06:51:00;;;;;;;25.83;14.65;;;;;;;;;;4973893;28;20304;-61
2023/07/06 06:53:26;;;;;;;28.77;14.57;;;;;;;;;;4974564;28;20221;-62
2023/07/06 06:55:52;;;;;;;32.42;16.08;;;;;;;;;;4974731;28;20577;-62
2023/07/06 06:58:18;;;;;;;29.02;15.05;;;;;;;;;;4972346;28;20364;-61
2023/07/06 07:00:44;;;;;;;33.55;15.65;;;;;;;;;;4973557;28;20210;-62
2023/07/06 07:03:11;;;;;;;27.10;14.68;;;;;;;;;;4974028;28;20281;-61
2023/07/06 07:05:37;;;;;;;25.52;15.10;;;;;;;;;;4972761;28;20209;-61
2023/07/06 07:08:03;;;;;;;27.83;14.50;;;;;;;;;;4973945;28;20217;-62
2023/07/06 07:10:28;;;;;;;24.95;14.75;;;;;;;;;;4974250;28;20221;-62
2023/07/06 07:12:54;;;;;;;29.30;14.20;;;;;;;;;;4974016;28;20492;-61
2023/07/06 07:15:19;;;;;;;27.83;14.30;;;;;;;;;;4973920;28;20206;-61
2023/07/06 07:17:45;;;;;;;23.63;13.80;;;;;;;;;;4973841;28;20237;-62
2023/07/06 07:20:10;;;;;;;27.40;14.10;;;;;;;;;;4973100;28;20213;-62
2023/07/06 07:22:36;;;;;;;24.80;14.43;;;;;;;;;;4974198;28;20682;-61
2023/07/06 07:25:02;;;;;;;31.08;15.02;;;;;;;;;;4973557;28;20574;-61
2023/07/06 07:27:28;;;;;;;21.20;13.48;;;;;;;;;;4973327;28;20574;-62
2023/07/06 07:29:54;;;;;;;23.98;14.48;;;;;;;;;;4972920;28;20732;-62
2023/07/06 07:32:20;;;;;;;25.77;15.07;;;;;;;;;;4972441;28;20719;-61
2023/07/06 07:34:50;;;;;;;25.45;14.55;;;;;;;;;;4973143;28;20218;-62
2023/07/06 07:37:18;;;;;;;23.85;15.00;;;;;;;;;;4972957;28;20236;-62
2023/07/06 07:39:45;;;;;;;22.65;14.75;;;;;;;;;;4973350;28;20273;-62
2023/07/06 07:42:11;;;;;;;22.20;14.88;;;;;;;;;;4969704;28;20680;-61
2023/07/06 07:44:37;;;;;;;26.42;14.80;;;;;;;;;;4973914;28;20233;-62
2023/07/06 07:47:03;;;;;;;24.23;14.52;;;;;;;;;;4972472;28;20213;-61
2023/07/06 07:49:28;;;;;;;26.77;15.18;;;;;;;;;;4973978;28;20578;-61
2023/07/06 07:51:53;;;;;;;25.88;13.63;;;;;;;;;;4972743;28;20252;-62
2023/07/06 07:54:19;;;;;;;22.58;14.32;;;;;;;;;;4971054;28;20720;-61
2023/07/06 07:56:44;;;;;;;23.40;14.48;;;;;;;;;;4969802;28;20727;-61
2023/07/06 07:59:10;;;;;;;27.85;13.95;;;;;;;;;;4968346;28;20210;-61
2023/07/06 08:01:35;;;;;;;25.60;13.20;;;;;;;;;;4971662;28;20214;-61
2023/07/06 08:04:02;;;;;;;24.20;13.98;;;;;;;;;;4973166;28;20213;-61
2023/07/06 08:06:28;;;;;;;21.20;13.32;;;;;;;;;;4973664;28;20210;-62
2023/07/06 08:08:53;;;;;;;26.48;14.07;;;;;;;;;;4971930;28;20561;-62
2023/07/06 08:11:20;;;;;;;20.50;13.40;;;;;;;;;;4972928;28;20768;-61
2023/07/06 08:13:46;;;;;;;19.60;12.93;;;;;;;;;;4973423;28;20210;-62
2023/07/06 08:16:12;;;;;;;20.52;12.52;;;;;;;;;;4971713;28;20225;-62
2023/07/06 08:18:38;;;;;;;19.15;12.18;;;;;;;;;;4973215;28;20654;-62
2023/07/06 08:21:04;;;;;;;18.73;11.68;;;;;;;;;;4972730;28;20206;-62
2023/07/06 08:23:29;;;;;;;22.38;12.40;;;;;;;;;;4972711;28;20569;-62
2023/07/06 08:25:54;;;;;;;17.20;11.85;;;;;;;;;;4972982;28;20220;-62
2023/07/06 08:28:21;;;;;;;20.95;12.38;;;;;;;;;;4972637;28;20218;-62
2023/07/06 08:30:46;;;;;;;21.70;12.23;;;;;;;;;;4972353;28;20236;-62
2023/07/06 08:33:12;;;;;;;20.48;12.18;;;;;;;;;;4972219;28;20226;-62
2023/07/06 08:35:44;;;;;;;22.50;11.70;;;;;;;;;;4972702;28;20233;-62
2023/07/06 08:38:09;;;;;;;18.90;12.35;;;;;;;;;;4971760;28;20240;-62
2023/07/06 08:40:36;;;;;;;18.48;11.05;;;;;;;;;;4973041;28;20610;-62
2023/07/06 08:43:02;;;;;;;20.58;12.05;;;;;;;;;;4972081;28;20214;-62
2023/07/06 08:45:31;;;;;;;17.67;11.55;;;;;;;;;;4971901;28;20215;-62
2023/07/06 08:47:57;;;;;;;19.30;11.27;;;;;;;;;;4955116;28;20248;-62
2023/07/06 08:50:25;;;;;;;16.63;10.45;;;;;;;;;;4971282;28;20237;-62
2023/07/06 08:52:53;;;;;;;21.73;12.25;;;;;;;;;;4972711;28;20225;-62
2023/07/06 08:55:18;;;;;;;19.75;11.10;;;;;;;;;;4971873;28;20214;-62
2023/07/06 08:57:45;;;;;;;17.55;10.63;;;;;;;;;;4971770;28;20272;-62
2023/07/06 09:00:22;;;;;;;19.20;11.13;;;;;;;;;;4955139;28;20233;-62
2023/07/06 09:02:49;;;;;;;20.52;11.38;;;;;;;;;;4972134;28;20217;-62
2023/07/06 09:05:15;;;;;;;18.90;10.48;;;;;;;;;;4953804;28;20213;-62
2023/07/06 09:07:42;;;;;;;16.13;9.65;;;;;;;;;;4972321;28;20217;-62
2023/07/06 09:10:11;;;;;;;14.60;9.68;;;;;;;;;;4971686;28;20620;-62
2023/07/06 09:12:39;;;;;;;14.18;9.15;;;;;;;;;;4971433;28;20213;-62
2023/07/06 09:15:06;;;;;;;18.88;9.60;;;;;;;;;;4971852;28;20214;-62
2023/07/06 09:17:34;;;;;;;15.52;10.50;;;;;;;;;;4971920;28;20377;-62
2023/07/06 09:19:59;;;;;;;16.98;10.43;;;;;;;;;;4971221;28;20210;-62
2023/07/06 09:22:27;;;;;;;17.30;10.23;;;;;;;;;;4954273;28;20248;-62
2023/07/06 09:24:52;;;;;;;17.63;10.57;;;;;;;;;;4971763;28;20708;-61
2023/07/06 09:27:18;;;;;;;17.05;9.57;;;;;;;;;;4970542;28;20222;-61
2023/07/06 09:29:44;;;;;;;15.00;8.90;;;;;;;;;;4971822;28;20237;-62
2023/07/06 09:32:13;;;;;;;16.50;9.70;;;;;;;;;;4971219;28;20224;-62
2023/07/06 09:34:41;;;;;;;14.38;9.40;;;;;;;;;;4953648;28;20206;-61
2023/07/06 09:37:10;;;;;;;15.52;8.93;;;;;;;;;;4971368;28;20237;-61
2023/07/06 09:39:35;;;;;;;14.68;8.48;;;;;;;;;;4953918;28;20210;-62
2023/07/06 09:42:01;;;;;;;15.77;8.95;;;;;;;;;;4971396;28;20218;-62
2023/07/06 09:44:28;;;;;;;14.50;8.75;;;;;;;;;;4971557;28;20224;-61
2023/07/06 09:46:55;;;;;;;17.33;7.85;;;;;;;;;;4970982;28;20245;-61
2023/07/06 09:49:21;;;;;;;13.07;7.18;;;;;;;;;;4971081;28;20310;-62
2023/07/06 09:51:55;;;;;;;13.25;8.15;;;;;;;;;;4954265;28;20300;-61
2023/07/06 09:54:22;;;;;;;12.98;9.00;;;;;;;;;;4952990;28;20217;-62
2023/07/06 09:56:48;;;;;;;11.63;7.90;;;;;;;;;;4971221;28;20747;-61
2023/07/06 09:59:13;;;;;;;13.35;8.23;;;;;;;;;;4970825;28;20242;-62
2023/07/06 10:01:49;;;;;;;14.80;7.50;;;;;;;;;;4953243;28;20257;-61
2023/07/06 10:04:20;;;;;;;14.98;8.30;;;;;;;;;;4970974;28;20691;-62
2023/07/06 10:07:01;;;;;;;14.90;8.73;;;;;;;;;;4953867;28;20600;-62
2023/07/06 10:09:31;;;;;;;12.90;7.63;;;;;;;;;;4959795;28;20241;-62
2023/07/06 10:11:57;;;;;;;16.88;8.63;;;;;;;;;;4971489;28;20218;-61
2023/07/06 10:14:28;;;;;;;16.50;9.73;;;;;;;;;;4969089;28;20222;-61
2023/07/06 10:16:53;;;;;;;16.05;9.63;;;;;;;;;;4970072;28;20724;-61
2023/07/06 10:19:31;;;;;;;13.02;8.55;;;;;;;;;;4970586;28;20242;-61
2023/07/06 10:22:01;;;;;;;14.20;8.45;;;;;;;;;;4967357;28;20202;-61
2023/07/06 10:24:34;;;;;;;13.63;7.68;;;;;;;;;;4970446;28;20705;-61
2023/07/06 10:27:01;;;;;;;15.52;8.77;;;;;;;;;;4968799;28;20201;-62
2023/07/06 10:29:31;;;;;;;13.60;8.00;;;;;;;;;;4952676;28;20264;-62
2023/07/06 10:31:58;;;;;;;15.15;8.18;;;;;;;;;;4953765;28;20221;-62
2023/07/06 10:34:32;;;;;;;12.50;7.40;;;;;;;;;;4953400;28;20218;-62
2023/07/06 10:36:57;;;;;;;11.57;7.38;;;;;;;;;;4970162;28;20230;-62
2023/07/06 10:39:23;;;;;;;14.93;8.23;;;;;;;;;;4970682;28;20561;-62
2023/07/06 10:41:53;;;;;;;15.98;8.07;;;;;;;;;;4970933;28;20700;-62
2023/07/06 10:44:46;;;;;;;12.98;8.18;;;;;;;;;;4952449;28;20300;-62
2023/07/06 10:47:31;;;;;;;19.45;8.20;;;;;;;;;;4970349;28;20217;-62
2023/07/06 10:50:12;;;;;;;15.35;7.97;;;;;;;;;;4970554;28;20218;-62
2023/07/06 10:52:38;;;;;;;13.55;7.55;;;;;;;;;;4970797;28;20217;-62
2023/07/06 10:55:11;;;;;;;12.88;7.93;;;;;;;;;;4969130;28;20217;-62
2023/07/06 10:57:38;;;;;;;15.32;7.70;;;;;;;;;;4970358;28;20226;-62
2023/07/06 11:00:05;;;;;;;15.90;7.70;;;;;;;;;;4968986;28;20677;-62
2023/07/06 11:02:40;;;;;;;14.60;8.10;;;;;;;;;;4970986;28;20241;-62
2023/07/06 11:05:07;;;;;;;13.50;8.65;;;;;;;;;;4968558;28;20245;-62
2023/07/06 11:07:38;;;;;;;15.38;7.45;;;;;;;;;;4970934;28;20218;-62
2023/07/06 11:10:09;;;;;;;12.07;6.72;;;;;;;;;;4970397;28;20625;-62
2023/07/06 11:12:49;;;;;;;14.45;7.45;;;;;;;;;;4970144;28;20305;-62
2023/07/06 11:15:16;;;;;;;13.68;6.40;;;;;;;;;;4969722;28;20300;-62
2023/07/06 11:17:48;;;;;;;9.43;5.53;;;;;;;;;;4970920;28;20221;-62
2023/07/06 11:20:16;;;;;;;11.65;6.05;;;;;;;;;;4969728;28;20575;-62
2023/07/06 11:22:44;;;;;;;12.68;5.90;;;;;;;;;;4953571;28;20217;-61
2023/07/06 11:25:10;;;;;;;9.88;4.88;;;;;;;;;;4952329;28;20645;-62
2023/07/06 11:27:36;;;;;;;10.73;5.57;;;;;;;;;;4955337;28;20218;-62
2023/07/06 11:30:18;;;;;;;11.43;5.30;;;;;;;;;;4955991;28;20229;-62
2023/07/06 11:32:49;;;;;;;10.07;5.47;;;;;;;;;;4973350;28;20681;-62
2023/07/06 11:35:32;;;;;;;11.05;5.20;;;;;;;;;;4973815;28;20225;-62
2023/07/06 11:38:15;;;;;;;10.30;5.07;;;;;;;;;;4974055;28;20221;-62
2023/07/06 11:40:46;;;;;;;7.50;4.03;;;;;;;;;;4973053;28;20260;-61
2023/07/06 11:43:28;;;;;;;8.57;4.00;;;;;;;;;;4973366;28;20209;-62
2023/07/06 11:45:53;;;;;;;9.40;5.22;;;;;;;;;;4956066;28;20221;-62
2023/07/06 11:48:32;;;;;;;8.48;4.60;;;;;;;;;;4972632;28;20217;-62
2023/07/06 11:50:58;;;;;;;11.38;4.20;;;;;;;;;;4973842;28;20772;-62
2023/07/06 11:53:32;;;;;;;9.93;4.53;;;;;;;;;;4955048;28;20300;-61
2023/07/06 11:56:05;;;;;;;10.05;4.15;;;;;;;;;;4957576;28;20229;-62
2023/07/06 11:58:43;;;;;;;7.38;4.00;;;;;;;;;;4973195;28;20218;-62
2023/07/06 12:01:20;;;;;;;10.27;4.13;;;;;;;;;;4972080;28;20249;-62
2023/07/06 12:03:47;;;;;;;9.38;3.90;;;;;;;;;;4972440;28;20229;-62
2023/07/06 12:06:13;;;;;;;9.98;3.90;;;;;;;;;;4973122;28;20297;-62
2023/07/06 12:08:39;;;;;;;8.55;3.95;;;;;;;;;;4972605;28;20305;-62
2023/07/06 12:11:05;;;;;;;8.88;3.88;;;;;;;;;;4973152;28;20317;-62
2023/07/06 12:13:35;;;;;;;9.02;4.40;;;;;;;;;;4972155;28;20673;-61
2023/07/06 12:16:03;;;;;;;8.65;4.10;;;;;;;;;;4971717;28;20265;-62
2023/07/06 12:18:29;;;;;;;8.30;3.47;;;;;;;;;;4973599;28;20626;-61
2023/07/06 12:20:55;;;;;;;10.40;3.65;;;;;;;;;;4972333;28;20716;-62
2023/07/06 12:23:21;;;;;;;8.30;4.40;;;;;;;;;;4971713;28;20268;-61
2023/07/06 12:25:46;;;;;;;10.52;4.57;;;;;;;;;;4972611;28;20717;-63
2023/07/06 12:28:14;;;;;;;8.85;4.38;;;;;;;;;;4971834;28;20265;-62
2023/07/06 12:30:40;;;;;;;13.18;5.10;;;;;;;;;;4973016;28;20225;-62
2023/07/06 12:33:05;;;;;;;9.60;4.60;;;;;;;;;;4955046;28;20216;-62
2023/07/06 12:35:33;;;;;;;10.43;4.25;;;;;;;;;;4972238;28;20222;-62
2023/07/06 12:37:59;;;;;;;8.48;4.55;;;;;;;;;;4972567;28;20245;-62
2023/07/06 12:40:25;;;;;;;7.13;3.58;;;;;;;;;;4972275;28;20244;-62
2023/07/06 12:42:52;;;;;;;10.82;3.97;;;;;;;;;;4972016;28;20206;-62
2023/07/06 12:45:18;;;;;;;7.93;3.88;;;;;;;;;;4972163;28;20214;-61
2023/07/06 12:47:43;;;;;;;9.30;3.72;;;;;;;;;;4972686;28;20220;-62
2023/07/06 12:50:10;;;;;;;10.73;4.18;;;;;;;;;;4970447;28;20209;-62
2023/07/06 12:52:36;;;;;;;7.50;3.15;;;;;;;;;;4972874;28;20217;-62
2023/07/06 12:55:03;;;;;;;10.13;3.35;;;;;;;;;;4972216;28;20222;-62
2023/07/06 12:57:29;;;;;;;8.77;3.38;;;;;;;;;;4971803;28;20222;-61
2023/07/06 13:00:08;;;;;;;8.38;3.75;;;;;;;;;;4967474;28;20608;-61
2023/07/06 13:02:36;;;;;;;6.72;3.45;;;;;;;;;;4971800;28;20214;-61
2023/07/06 13:05:14;;;;;;;8.15;3.33;;;;;;;;;;4971193;28;20214;-61
2023/07/06 13:07:39;;;;;;;10.23;3.88;;;;;;;;;;4972505;28;20261;-61
2023/07/06 13:10:06;;;;;;;7.00;3.53;;;;;;;;;;4971903;28;20229;-61
2023/07/06 13:12:33;;;;;;;11.50;3.60;;;;;;;;;;4971617;28;20217;-61
2023/07/06 13:15:00;;;;;;;10.23;4.43;;;;;;;;;;4971877;28;20214;-61
2023/07/06 13:17:25;;;;;;;12.27;4.25;;;;;;;;;;4970993;28;20221;-61
2023/07/06 13:19:52;;;;;;;7.05;3.80;;;;;;;;;;4972313;28;20241;-61
2023/07/06 13:22:17;;;;;;;11.18;4.32;;;;;;;;;;4971725;28;20213;-61
2023/07/06 13:24:42;;;;;;;12.13;4.25;;;;;;;;;;4954053;28;20210;-61
2023/07/06 13:27:14;;;;;;;13.25;4.93;;;;;;;;;;4971736;28;20569;-61
2023/07/06 13:29:40;;;;;;;12.38;4.18;;;;;;;;;;4968957;28;20237;-61
2023/07/06 13:32:09;;;;;;;11.70;4.43;;;;;;;;;;4962769;28;20218;-61
2023/07/06 13:34:35;;;;;;;11.80;3.72;;;;;;;;;;4948516;28;20245;-61
2023/07/06 13:37:01;;;;;;;12.73;3.95;;;;;;;;;;4954056;28;20234;-61
2023/07/06 13:39:26;;;;;;;11.68;4.20;;;;;;;;;;4941469;28;20276;-61
2023/07/06 13:41:51;;;;;;;9.82;3.83;;;;;;;;;;4955725;28;20643;-61
2023/07/06 13:44:17;;;;;;;10.73;3.70;;;;;;;;;;4964877;28;20296;-61
2023/07/06 13:46:50;;;;;;;9.43;3.45;;;;;;;;;;4946219;28;20210;-61
2023/07/06 13:49:16;;;;;;;7.72;3.30;;;;;;;;;;4963100;28;20690;-61
2023/07/06 13:51:41;;;;;;;11.63;3.38;;;;;;;;;;4946933;28;20221;-61
2023/07/06 13:54:10;;;;;;;8.23;3.15;;;;;;;;;;4963903;28;20214;-61
2023/07/06 13:56:36;;;;;;;9.90;3.38;;;;;;;;;;4958647;28;20427;-61
2023/07/06 13:59:02;;;;;;;7.13;2.85;;;;;;;;;;4957093;28;20631;-61
2023/07/06 14:01:27;;;;;;;6.95;3.00;;;;;;;;;;4958675;28;20221;-61
2023/07/06 14:03:54;;;;;;;8.88;2.95;;;;;;;;;;4963943;28;20225;-61
2023/07/06 14:06:19;;;;;;;9.45;3.35;;;;;;;;;;4963703;28;20214;-61
2023/07/06 14:08:45;;;;;;;8.93;3.03;;;;;;;;;;4946184;28;20222;-61
2023/07/06 14:11:10;;;;;;;8.43;3.25;;;;;;;;;;4945943;28;20217;-62
2023/07/06 14:13:35;;;;;;;7.97;3.00;;;;;;;;;;4946661;28;20232;-61
2023/07/06 14:16:01;;;;;;;8.75;2.97;;;;;;;;;;4945411;28;20225;-61
2023/07/06 14:18:26;;;;;;;10.13;3.55;;;;;;;;;;4942627;28;20214;-61
2023/07/06 14:20:55;;;;;;;7.30;3.20;;;;;;;;;;4938148;28;20221;-61
2023/07/06 14:23:21;;;;;;;8.10;3.20;;;;;;;;;;4957315;28;20832;-61
2023/07/06 14:25:47;;;;;;;7.32;2.50;;;;;;;;;;4954737;28;20218;-61